createdAt,value
2022-09-06T00:01:08.930Z,101255.28
2022-09-06T00:03:35.900Z,101250.97
2022-09-06T00:06:18.197Z,101256.91
2022-09-06T00:08:46.208Z,101246.44
2022-09-06T00:11:14.487Z,101249.75
2022-09-06T00:13:41.508Z,101245.34
2022-09-06T00:16:14.518Z,101245.22
2022-09-06T00:18:42.118Z,101252.91
2022-09-06T00:21:23.531Z,101254.66
2022-09-06T00:23:51.087Z,101252.13
2022-09-06T00:26:18.098Z,101253.00
2022-09-06T00:28:45.220Z,101250.41
2022-09-06T00:31:14.753Z,101248.59
2022-09-06T00:33:41.965Z,101245.09
2022-09-06T00:36:10.069Z,101242.50
2022-09-06T00:38:37.843Z,101246.66
2022-09-06T00:41:06.557Z,101241.38
2022-09-06T00:43:33.498Z,101248.19
2022-09-06T00:46:00.695Z,101248.97
2022-09-06T00:48:28.166Z,101246.34
2022-09-06T00:51:00.648Z,101244.63
2022-09-06T00:53:27.883Z,101245.50
2022-09-06T00:55:55.167Z,101247.22
2022-09-06T00:58:22.282Z,101238.50
2022-09-06T01:00:49.206Z,101236.78
2022-09-06T01:03:16.318Z,101237.63
2022-09-06T01:06:09.455Z,101243.66
2022-09-06T01:08:58.607Z,101249.81
2022-09-06T01:11:40.108Z,101242.94
2022-09-06T01:14:25.567Z,101233.56
2022-09-06T01:17:08.155Z,101233.59
2022-09-06T01:19:54.250Z,101231.00
2022-09-06T01:22:45.999Z,101232.00
2022-09-06T01:25:28.174Z,101229.53
2022-09-06T01:28:22.758Z,101233.09
2022-09-06T01:31:00.916Z,101235.84
2022-09-06T01:33:51.028Z,101224.72
2022-09-06T01:36:21.334Z,101227.41
2022-09-06T01:38:49.028Z,101227.50
2022-09-06T01:41:15.958Z,101224.94
2022-09-06T01:43:46.369Z,101224.16
2022-09-06T01:46:20.611Z,101233.78
2022-09-06T01:49:17.009Z,101233.91
2022-09-06T01:52:02.739Z,101243.59
2022-09-06T01:54:48.507Z,101238.44
2022-09-06T01:57:34.158Z,101242.84
2022-09-06T02:00:09.285Z,101240.59
2022-09-06T02:03:16.772Z,101243.81
2022-09-06T02:05:47.820Z,101244.94
2022-09-06T02:08:22.844Z,101254.66
2022-09-06T02:11:02.277Z,101260.31
2022-09-06T02:13:33.873Z,101252.69
2022-09-06T02:16:06.577Z,101252.34
2022-09-06T02:18:43.269Z,101254.53
2022-09-06T02:21:13.514Z,101250.44
2022-09-06T02:23:43.147Z,101249.78
2022-09-06T02:26:14.533Z,101249.97
2022-09-06T02:28:41.633Z,101258.81
2022-09-06T02:31:25.946Z,101255.38
2022-09-06T02:33:53.352Z,101251.06
2022-09-06T02:36:21.206Z,101241.72
2022-09-06T02:38:48.487Z,101239.28
2022-09-06T02:41:18.696Z,101243.75
2022-09-06T02:43:45.799Z,101242.06
2022-09-06T02:46:12.776Z,101239.53
2022-09-06T02:48:39.787Z,101234.44
2022-09-06T02:51:08.570Z,101236.25
2022-09-06T02:53:36.111Z,101232.06
2022-09-06T02:56:03.347Z,101226.13
2022-09-06T02:58:30.582Z,101233.97
2022-09-06T03:00:57.774Z,101230.53
2022-09-06T03:03:25.096Z,101227.19
2022-09-06T03:05:53.510Z,101222.94
2022-09-06T03:08:22.537Z,101229.09
2022-09-06T03:10:54.258Z,101217.84
2022-09-06T03:13:21.801Z,101219.59
2022-09-06T03:15:57.028Z,101218.72
2022-09-06T03:18:25.767Z,101224.06
2022-09-06T03:20:53.789Z,101218.94
2022-09-06T03:23:23.717Z,101219.00
2022-09-06T03:25:50.829Z,101216.47
2022-09-06T03:28:18.661Z,101209.53
2022-09-06T03:30:47.326Z,101215.56
2022-09-06T03:33:14.631Z,101212.13
2022-09-06T03:35:51.507Z,101220.81
2022-09-06T03:38:18.544Z,101224.28
2022-09-06T03:40:47.002Z,101217.34
2022-09-06T03:43:14.537Z,101213.75
2022-09-06T03:45:46.053Z,101206.78
2022-09-06T03:48:13.072Z,101212.00
2022-09-06T03:50:44.615Z,101211.13
2022-09-06T03:53:11.806Z,101212.06
2022-09-06T03:55:38.971Z,101211.19
2022-09-06T03:58:06.015Z,101214.66
2022-09-06T04:00:33.698Z,101209.47
2022-09-06T04:03:01.859Z,101211.28
2022-09-06T04:05:29.028Z,101208.69
2022-09-06T04:07:55.936Z,101209.53
2022-09-06T04:10:22.966Z,101202.69
2022-09-06T04:12:49.879Z,101206.47
2022-09-06T04:15:16.973Z,101202.53
2022-09-06T04:17:45.934Z,101200.94
2022-09-06T04:20:13.645Z,101204.28
2022-09-06T04:22:40.935Z,101206.81
2022-09-06T04:25:08.750Z,101213.75
2022-09-06T04:27:35.778Z,101205.03
2022-09-06T04:30:02.688Z,101204.16
2022-09-06T04:32:29.790Z,101206.75
2022-09-06T04:34:56.669Z,101206.75
2022-09-06T04:37:23.776Z,101218.03
2022-09-06T04:39:50.759Z,101212.84
2022-09-06T04:42:17.717Z,101215.50
2022-09-06T04:44:44.801Z,101206.81
2022-09-06T04:47:14.949Z,101203.34
2022-09-06T04:49:42.558Z,101205.13
2022-09-06T04:52:10.275Z,101209.53
2022-09-06T04:54:38.707Z,101213.91
2022-09-06T04:57:05.859Z,101218.31
2022-09-06T04:59:33.346Z,101217.44
2022-09-06T05:02:00.334Z,101214.91
2022-09-06T05:04:27.300Z,101213.28
2022-09-06T05:07:05.073Z,101215.06
2022-09-06T05:09:33.025Z,101206.44
2022-09-06T05:12:00.515Z,101209.94
2022-09-06T05:14:28.238Z,101206.50
2022-09-06T05:16:55.564Z,101215.25
2022-09-06T05:19:22.975Z,101204.00
2022-09-06T05:21:51.649Z,101212.72
2022-09-06T05:24:19.173Z,101221.50
2022-09-06T05:26:46.157Z,101225.03
2022-09-06T05:29:13.256Z,101211.16
2022-09-06T05:31:40.215Z,101210.38
2022-09-06T05:34:07.246Z,101214.78
2022-09-06T05:36:34.499Z,101215.72
2022-09-06T05:39:01.625Z,101216.63
2022-09-06T05:41:28.655Z,101207.09
2022-09-06T05:43:55.776Z,101205.34
2022-09-06T05:46:22.755Z,101204.50
2022-09-06T05:48:58.192Z,101210.63
2022-09-06T05:51:25.239Z,101201.94
2022-09-06T05:53:52.227Z,101208.91
2022-09-06T05:56:19.325Z,101204.63
2022-09-06T05:58:46.362Z,101202.00
2022-09-06T06:01:17.691Z,101211.63
2022-09-06T06:03:59.083Z,101207.25
2022-09-06T06:06:28.661Z,101202.91
2022-09-06T06:08:56.425Z,101206.38
2022-09-06T06:11:24.315Z,101197.66
2022-09-06T06:13:51.815Z,101205.53
2022-09-06T06:16:20.513Z,101195.94
2022-09-06T06:18:51.919Z,101202.91
2022-09-06T06:21:23.916Z,101196.81
2022-09-06T06:23:56.184Z,101199.41
2022-09-06T06:26:23.815Z,101195.03
2022-09-06T06:28:51.667Z,101193.19
2022-09-06T06:31:19.565Z,101187.09
2022-09-06T06:33:46.595Z,101186.09
2022-09-06T06:36:13.498Z,101187.69
2022-09-06T06:38:44.846Z,101187.50
2022-09-06T06:41:14.015Z,101186.53
2022-09-06T06:43:41.218Z,101189.09
2022-09-06T06:46:15.701Z,101182.94
2022-09-06T06:48:44.051Z,101194.28
2022-09-06T06:51:13.228Z,101189.81
2022-09-06T06:53:40.543Z,101192.47
2022-09-06T06:56:16.246Z,101190.69
2022-09-06T06:58:43.676Z,101185.28
2022-09-06T07:01:11.076Z,101189.38
2022-09-06T07:03:38.397Z,101181.22
2022-09-06T07:06:13.317Z,101188.88
2022-09-06T07:08:41.035Z,101184.31
2022-09-06T07:11:10.126Z,101184.66
2022-09-06T07:13:37.488Z,101184.56
2022-09-06T07:16:12.090Z,101186.03
2022-09-06T07:18:42.288Z,101188.75
2022-09-06T07:24:09.059Z,101181.50
2022-09-06T07:26:38.517Z,101183.13
2022-09-06T07:29:06.547Z,101187.09
2022-09-06T07:34:22.320Z,101186.59
2022-09-06T07:36:53.328Z,101187.09
2022-09-06T07:39:20.546Z,101177.97
2022-09-06T07:41:47.666Z,101184.00
2022-09-06T07:44:15.534Z,101181.94
2022-09-06T07:46:42.785Z,101179.38
2022-09-06T07:49:09.818Z,101167.41
2022-09-06T07:51:36.926Z,101169.25
2022-09-06T07:54:29.253Z,101171.63
2022-09-06T07:56:51.656Z,101177.75
2022-09-06T07:59:18.705Z,101183.56
2022-09-06T08:01:47.586Z,101169.97
2022-09-06T08:04:14.945Z,101176.59
2022-09-06T08:09:35.695Z,101170.81
2022-09-06T08:12:07.101Z,101171.44
2022-09-06T08:14:34.995Z,101168.59
2022-09-06T08:17:04.957Z,101174.91
2022-09-06T08:19:32.630Z,101153.03
2022-09-06T08:21:59.720Z,101170.13
2022-09-06T08:24:26.699Z,101181.59
2022-09-06T08:26:53.950Z,101168.16
2022-09-06T08:29:21.110Z,101163.75
2022-09-06T08:31:48.391Z,101160.38
2022-09-06T08:34:16.047Z,101169.16
2022-09-06T08:36:44.207Z,101165.13
2022-09-06T08:39:11.652Z,101152.91
2022-09-06T08:41:47.698Z,101157.53
2022-09-06T08:47:12.786Z,101154.94
2022-09-06T08:50:07.418Z,101152.75
2022-09-06T08:52:45.086Z,101155.84
2022-09-06T08:55:57.096Z,101150.38
2022-09-06T08:58:30.042Z,101148.16
2022-09-06T09:01:02.463Z,101147.38
2022-09-06T09:03:36.866Z,101142.75
2022-09-06T09:06:07.146Z,101137.44
2022-09-06T09:08:44.437Z,101138.94
2022-09-06T09:11:15.827Z,101141.53
2022-09-06T09:13:59.392Z,101144.47
2022-09-06T09:16:26.637Z,101141.00
2022-09-06T09:18:56.616Z,101136.97
2022-09-06T09:21:30.472Z,101141.84
2022-09-06T09:24:02.413Z,101124.50
2022-09-06T09:26:36.940Z,101132.94
2022-09-06T09:29:05.020Z,101132.38
2022-09-06T09:31:43.029Z,101127.09
2022-09-06T09:34:15.135Z,101117.91
2022-09-06T09:39:35.841Z,101120.44
2022-09-06T09:42:03.837Z,101123.91
2022-09-06T09:44:30.935Z,101114.84
2022-09-06T09:46:57.994Z,101114.78
2022-09-06T09:49:25.380Z,101112.97
2022-09-06T09:52:11.975Z,101109.56
2022-09-06T09:54:41.527Z,101101.63
2022-09-06T09:57:15.117Z,101099.16
2022-09-06T09:59:51.484Z,101102.09
2022-09-06T10:02:19.776Z,101102.34
2022-09-06T10:04:54.445Z,101111.19
2022-09-06T10:07:23.206Z,101089.06
2022-09-06T10:10:01.443Z,101101.69
2022-09-06T10:12:38.907Z,101087.69
2022-09-06T10:15:07.786Z,101100.06
2022-09-06T10:17:38.590Z,101090.31
2022-09-06T10:20:09.666Z,101096.34
2022-09-06T10:23:14.072Z,101096.78
2022-09-06T10:25:51.335Z,101082.34
2022-09-06T10:28:36.514Z,101089.13
2022-09-06T10:31:25.374Z,101085.25
2022-09-06T10:34:01.226Z,101092.38
2022-09-06T10:36:37.481Z,101102.59
2022-09-06T10:39:26.226Z,101083.78
2022-09-06T10:41:55.996Z,101082.56
2022-09-06T10:45:03.669Z,101083.88
2022-09-06T10:47:47.036Z,101074.94
2022-09-06T10:50:14.564Z,101081.91
2022-09-06T10:52:44.419Z,101088.97
2022-09-06T10:55:16.156Z,101066.50
2022-09-06T11:00:46.866Z,101076.97
2022-09-06T11:06:21.211Z,101067.59
2022-09-06T11:08:58.421Z,101073.53
2022-09-06T11:11:59.525Z,101065.09
2022-09-06T11:14:28.876Z,101064.44
2022-09-06T11:17:34.805Z,101056.28
2022-09-06T11:20:08.967Z,101055.84
2022-09-06T11:22:41.623Z,101046.56
2022-09-06T11:25:32.049Z,101047.84
2022-09-06T11:28:00.748Z,101040.63
2022-09-06T11:30:29.881Z,101030.88
2022-09-06T11:33:25.992Z,101035.03
2022-09-06T11:35:54.107Z,101027.13
2022-09-06T11:38:25.275Z,101040.22
2022-09-06T11:41:02.054Z,101039.84
2022-09-06T11:43:49.016Z,101027.94
2022-09-06T11:46:48.597Z,101033.91
2022-09-06T11:49:15.696Z,101031.44
2022-09-06T11:51:44.404Z,101027.06
2022-09-06T11:54:23.362Z,101029.66
2022-09-06T11:57:08.895Z,101013.59
2022-09-06T11:59:39.059Z,101017.06
2022-09-06T12:02:08.335Z,101011.25
2022-09-06T12:05:01.028Z,101023.19
2022-09-06T12:07:29.115Z,101011.44
2022-09-06T12:09:56.196Z,101015.00
2022-09-06T12:12:43.394Z,101002.44
2022-09-06T12:15:40.568Z,101007.94
2022-09-06T12:18:07.635Z,101002.00
2022-09-06T12:20:51.278Z,101001.66
2022-09-06T12:23:36.491Z,101002.59
2022-09-06T12:26:05.673Z,101000.75
2022-09-06T12:28:53.955Z,100993.78
2022-09-06T12:31:33.382Z,100987.78
2022-09-06T12:34:20.036Z,100987.47
2022-09-06T12:36:51.555Z,100980.38
2022-09-06T12:39:21.375Z,100983.59
2022-09-06T12:41:50.895Z,100981.75
2022-09-06T12:44:28.034Z,100968.63
2022-09-06T12:46:55.025Z,100968.88
2022-09-06T12:49:23.542Z,100972.38
2022-09-06T12:51:50.515Z,100971.75
2022-09-06T12:54:24.106Z,100960.31
2022-09-06T12:56:51.615Z,100960.19
2022-09-06T12:59:25.182Z,100958.81
2022-09-06T13:02:21.104Z,100956.19
2022-09-06T13:04:53.285Z,100953.06
2022-09-06T13:07:22.799Z,100957.47
2022-09-06T13:09:52.103Z,100965.94
2022-09-06T13:12:35.704Z,100958.13
2022-09-06T13:15:25.320Z,100958.03
2022-09-06T13:17:53.909Z,100962.09
2022-09-06T13:20:32.986Z,100958.97
2022-09-06T13:23:11.566Z,100959.16
2022-09-06T13:25:53.254Z,100954.47
2022-09-06T13:28:29.233Z,100946.47
2022-09-06T13:31:18.134Z,100935.81
2022-09-06T13:33:46.545Z,100939.34
2022-09-06T13:36:14.046Z,100930.56
2022-09-06T13:38:43.093Z,100950.13
2022-09-06T13:41:30.287Z,100932.25
2022-09-06T13:44:26.526Z,100939.66
2022-09-06T13:46:55.229Z,100943.16
2022-09-06T13:49:25.841Z,100931.81
2022-09-06T13:51:54.066Z,100928.34
2022-09-06T13:54:22.966Z,100927.91
2022-09-06T13:56:50.838Z,100927.97
2022-09-06T13:59:18.235Z,100928.75
2022-09-06T14:01:47.473Z,100932.13
2022-09-06T14:04:16.415Z,100925.31
2022-09-06T14:06:44.335Z,100928.13
2022-09-06T14:09:11.878Z,100914.88
2022-09-06T14:11:39.270Z,100923.72
2022-09-06T14:14:07.787Z,100924.88
2022-09-06T14:16:35.286Z,100921.47
2022-09-06T14:19:03.427Z,100921.38
2022-09-06T14:21:30.916Z,100917.81
2022-09-06T14:24:03.349Z,100922.34
2022-09-06T14:26:32.740Z,100908.19
2022-09-06T14:29:00.097Z,100909.22
2022-09-06T14:31:28.512Z,100908.41
2022-09-06T14:33:56.986Z,100918.16
2022-09-06T14:36:26.758Z,100909.53
2022-09-06T14:38:54.014Z,100904.22
2022-09-06T14:41:21.285Z,100899.75
2022-09-06T14:43:51.218Z,100907.06
2022-09-06T14:46:19.296Z,100896.63
2022-09-06T14:48:46.835Z,100891.53
2022-09-06T14:51:23.285Z,100890.50
2022-09-06T14:53:52.879Z,100880.97
2022-09-06T14:56:20.399Z,100882.91
2022-09-06T14:58:47.889Z,100890.00
2022-09-06T15:01:21.104Z,100883.16
2022-09-06T15:03:51.880Z,100885.78
2022-09-06T15:06:23.219Z,100892.13
2022-09-06T15:08:50.603Z,100892.34
2022-09-06T15:11:37.354Z,100879.88
2022-09-06T15:14:07.828Z,100885.84
2022-09-06T15:16:36.043Z,100884.13
2022-09-06T15:19:03.737Z,100885.88
2022-09-06T15:21:31.701Z,100876.44
2022-09-06T15:24:00.003Z,100878.22
2022-09-06T15:26:26.947Z,100877.53
2022-09-06T15:28:54.581Z,100876.66
2022-09-06T15:31:21.817Z,100881.13
2022-09-06T15:33:51.109Z,100879.47
2022-09-06T15:36:18.810Z,100856.97
2022-09-06T15:38:48.215Z,100865.06
2022-09-06T15:41:19.384Z,100868.63
2022-09-06T15:43:48.696Z,100869.59
2022-09-06T15:46:17.999Z,100859.09
2022-09-06T15:48:47.233Z,100857.28
2022-09-06T15:51:16.782Z,100856.31
2022-09-06T15:53:44.379Z,100847.78
2022-09-06T15:56:14.610Z,100850.63
2022-09-06T15:58:41.951Z,100840.97
2022-09-06T16:01:14.792Z,100842.03
2022-09-06T16:03:43.944Z,100839.50
2022-09-06T16:06:31.670Z,100838.75
2022-09-06T16:09:01.428Z,100844.97
2022-09-06T16:11:29.493Z,100845.00
2022-09-06T16:13:56.702Z,100840.59
2022-09-06T16:16:24.695Z,100845.88
2022-09-06T16:18:54.803Z,100838.88
2022-09-06T16:21:24.840Z,100836.47
2022-09-06T16:23:54.338Z,100834.84
2022-09-06T16:26:23.537Z,100828.66
2022-09-06T16:28:51.853Z,100834.94
2022-09-06T16:31:19.737Z,100832.38
2022-09-06T16:33:48.822Z,100838.44
2022-09-06T16:36:16.940Z,100830.59
2022-09-06T16:38:44.123Z,100834.13
2022-09-06T16:41:36.020Z,100822.91
2022-09-06T16:44:03.539Z,100835.09
2022-09-06T16:46:31.216Z,100827.25
2022-09-06T16:49:01.371Z,100822.97
2022-09-06T16:51:31.380Z,100819.50
2022-09-06T16:53:59.557Z,100823.91
2022-09-06T16:56:28.841Z,100826.63
2022-09-06T16:58:58.796Z,100824.06
2022-09-06T17:01:27.695Z,100820.59
2022-09-06T17:03:55.109Z,100828.44
2022-09-06T17:06:23.104Z,100824.94
2022-09-06T17:08:51.030Z,100818.03
2022-09-06T17:11:20.565Z,100811.91
2022-09-06T17:13:49.300Z,100817.25
2022-09-06T17:16:34.631Z,100819.91
2022-09-06T17:19:02.003Z,100814.75
2022-09-06T17:21:29.728Z,100824.41
2022-09-06T17:23:58.704Z,100823.56
2022-09-06T17:26:25.785Z,100825.38
2022-09-06T17:28:52.710Z,100815.78
2022-09-06T17:31:24.982Z,100830.63
2022-09-06T17:33:52.777Z,100828.91
2022-09-06T17:36:23.610Z,100842.00
2022-09-06T17:38:53.742Z,100832.41
2022-09-06T17:41:24.336Z,100835.09
2022-09-06T17:43:54.127Z,100833.38
2022-09-06T17:46:26.402Z,100833.41
2022-09-06T17:48:56.143Z,100828.22
2022-09-06T17:51:24.373Z,100830.88
2022-09-06T17:53:52.255Z,100828.31
2022-09-06T17:56:20.370Z,100823.97
2022-09-06T17:58:57.674Z,100826.63
2022-09-06T18:01:26.219Z,100831.00
2022-09-06T18:03:53.284Z,100831.84
2022-09-06T18:06:22.941Z,100828.41
2022-09-06T18:08:52.124Z,100832.78
2022-09-06T18:11:24.886Z,100829.34
2022-09-06T18:14:24.895Z,100836.38
2022-09-06T18:16:52.255Z,100832.91
2022-09-06T18:19:19.620Z,100832.91
2022-09-06T18:21:47.464Z,100841.66
2022-09-06T18:24:14.557Z,100840.78
2022-09-06T18:26:42.245Z,100839.03
2022-09-06T18:29:13.241Z,100833.81
2022-09-06T18:31:41.503Z,100839.03
2022-09-06T18:34:09.308Z,100844.28
2022-09-06T18:36:37.904Z,100844.25
2022-09-06T18:39:05.763Z,100841.63
2022-09-06T18:41:52.255Z,100851.19
2022-09-06T18:44:19.568Z,100840.78
2022-09-06T18:46:46.771Z,100846.00
2022-09-06T18:49:15.251Z,100845.06
2022-09-06T18:51:42.775Z,100835.53
2022-09-06T18:54:11.309Z,100845.94
2022-09-06T18:56:38.785Z,100845.06
2022-09-06T18:59:06.141Z,100838.97
2022-09-06T19:01:35.161Z,100844.16
2022-09-06T19:04:03.114Z,100837.22
2022-09-06T19:06:31.795Z,100841.53
2022-09-06T19:09:00.621Z,100839.78
2022-09-06T19:11:28.338Z,100832.78
2022-09-06T19:13:56.414Z,100828.44
2022-09-06T19:16:24.525Z,100837.09
2022-09-06T19:18:55.165Z,100833.59
2022-09-06T19:21:24.895Z,100827.50
2022-09-06T19:24:00.468Z,100828.34
2022-09-06T19:26:31.345Z,100823.97
2022-09-06T19:29:00.157Z,100828.31
2022-09-06T19:31:30.180Z,100828.28
2022-09-06T19:33:57.699Z,100820.44
2022-09-06T19:36:26.487Z,100825.63
2022-09-06T19:39:03.951Z,100825.59
2022-09-06T19:41:33.780Z,100823.84
2022-09-06T19:44:01.855Z,100819.47
2022-09-06T19:46:29.270Z,100817.72
2022-09-06T19:48:56.849Z,100812.47
2022-09-06T19:51:24.442Z,100811.63
2022-09-06T19:53:54.294Z,100814.19
2022-09-06T19:56:32.101Z,100809.81
2022-09-06T19:59:01.590Z,100802.88
2022-09-06T20:01:31.692Z,100808.00
2022-09-06T20:04:00.373Z,100802.81
2022-09-06T20:06:27.764Z,100806.22
2022-09-06T20:08:56.582Z,100804.47
2022-09-06T20:11:27.176Z,100801.00
2022-09-06T20:13:54.283Z,100802.69
2022-09-06T20:16:21.801Z,100800.09
2022-09-06T20:18:49.499Z,100798.31
2022-09-06T20:21:18.667Z,100798.31
2022-09-06T20:23:50.544Z,100802.59
2022-09-06T20:26:18.248Z,100804.28
2022-09-06T20:28:45.668Z,100800.78
2022-09-06T20:31:17.420Z,100791.22
2022-09-06T20:33:49.526Z,100790.34
2022-09-06T20:36:18.204Z,100790.28
2022-09-06T20:38:46.565Z,100786.78
2022-09-06T20:41:15.780Z,100787.59
2022-09-06T20:43:42.937Z,100791.06
2022-09-06T20:46:14.779Z,100803.13
2022-09-06T20:48:44.660Z,100797.94
2022-09-06T20:51:18.829Z,100791.81
2022-09-06T20:53:48.194Z,100794.31
2022-09-06T20:56:17.386Z,100794.28
2022-09-06T20:59:05.178Z,100792.50
2022-09-06T21:01:35.250Z,100793.38
2022-09-06T21:04:04.250Z,100789.00
2022-09-06T21:06:34.486Z,100788.97
2022-09-06T21:09:03.110Z,100792.41
2022-09-06T21:11:30.236Z,100793.25
2022-09-06T21:13:57.766Z,100787.13
2022-09-06T21:16:27.714Z,100786.22
2022-09-06T21:18:57.534Z,100787.09
2022-09-06T21:21:25.603Z,100781.84
2022-09-06T21:23:53.981Z,100788.75
2022-09-06T21:26:22.409Z,100786.97
2022-09-06T21:28:49.876Z,100779.19
2022-09-06T21:31:22.871Z,100780.84
2022-09-06T21:33:52.702Z,100779.13
2022-09-06T21:36:21.819Z,100773.84
2022-09-06T21:38:55.549Z,100780.72
2022-09-06T21:41:23.257Z,100778.13
2022-09-06T21:43:54.324Z,100784.13
2022-09-06T21:46:23.082Z,100778.91
2022-09-06T21:48:52.089Z,100775.47
2022-09-06T21:51:21.461Z,100777.19
2022-09-06T21:53:50.030Z,100783.16
2022-09-06T21:56:19.738Z,100783.97
2022-09-06T21:58:51.095Z,100779.56
2022-09-06T22:01:19.008Z,100779.53
2022-09-06T22:03:46.437Z,100788.16
2022-09-06T22:06:24.951Z,100789.00
2022-09-06T22:08:52.795Z,100785.56
2022-09-06T22:11:24.690Z,100786.44
2022-09-06T22:13:51.811Z,100785.63
2022-09-06T22:16:21.982Z,100782.97
2022-09-06T22:18:49.917Z,100788.97
2022-09-06T22:21:20.131Z,100780.38
2022-09-06T22:23:55.785Z,100773.41
2022-09-06T22:26:23.895Z,100778.63
2022-09-06T22:28:58.731Z,100782.91
2022-09-06T22:31:27.837Z,100781.16
2022-09-06T22:33:55.431Z,100780.25
2022-09-06T22:36:24.120Z,100774.13
2022-09-06T22:38:56.377Z,100772.38
2022-09-06T22:41:28.828Z,100766.31
2022-09-06T22:43:56.498Z,100770.66
2022-09-06T22:46:24.010Z,100762.00
2022-09-06T22:48:51.052Z,100762.78
2022-09-06T22:51:18.057Z,100765.31
2022-09-06T22:53:45.093Z,100764.50
2022-09-06T22:56:12.114Z,100765.31
2022-09-06T22:58:39.295Z,100761.81
2022-09-06T23:01:08.924Z,100763.50
2022-09-06T23:03:36.201Z,100767.78
2022-09-06T23:06:03.973Z,100764.28
2022-09-06T23:08:31.694Z,100768.63
2022-09-06T23:11:04.711Z,100759.97
2022-09-06T23:13:31.756Z,100763.44
2022-09-06T23:16:05.954Z,100759.03
2022-09-06T23:18:33.216Z,100755.50
2022-09-06T23:21:05.226Z,100748.50
2022-09-06T23:23:32.267Z,100748.50
2022-09-06T23:26:04.299Z,100751.03
2022-09-06T23:28:31.499Z,100745.91
2022-09-06T23:31:01.998Z,100740.66
2022-09-06T23:33:29.335Z,100738.00
2022-09-06T23:35:56.650Z,100741.44
2022-09-06T23:38:23.600Z,100742.28
2022-09-06T23:40:50.587Z,100732.78
2022-09-06T23:43:17.512Z,100742.22
2022-09-06T23:45:44.517Z,100740.47
2022-09-06T23:48:11.454Z,100737.75
2022-09-06T23:50:38.705Z,100737.63
2022-09-06T23:53:05.700Z,100745.25
2022-09-06T23:55:32.608Z,100723.66
2022-09-06T23:57:59.605Z,100724.50
